createdAt,value
2023-05-01T00:00:25.179Z,1.00
2023-05-01T00:03:14.558Z,1.00
2023-05-01T00:05:42.892Z,1.67
2023-05-01T00:08:13.798Z,2.00
2023-05-01T00:10:41.929Z,2.00
2023-05-01T00:13:10.328Z,0.00
2023-05-01T00:15:42.204Z,1.00
2023-05-01T00:18:10.140Z,1.33
2023-05-01T00:20:38.164Z,1.00
2023-05-01T00:23:07.161Z,1.00
2023-05-01T00:25:35.318Z,1.00
2023-05-01T00:28:03.231Z,1.00
2023-05-01T00:30:32.969Z,1.00
2023-05-01T00:33:02.048Z,1.00
2023-05-01T00:35:30.301Z,1.50
2023-05-01T00:37:58.784Z,1.00
2023-05-01T00:40:28.160Z,1.00
2023-05-01T00:42:56.823Z,1.00
2023-05-01T00:45:24.817Z,1.00
2023-05-01T00:47:52.841Z,0.00
2023-05-01T00:50:20.903Z,1.67
2023-05-01T00:52:48.954Z,2.00
2023-05-01T00:55:17.617Z,1.00
2023-05-01T00:57:45.952Z,1.00
2023-05-01T01:00:14.312Z,1.00
2023-05-01T01:02:42.395Z,1.00
2023-05-01T01:05:10.481Z,1.33
2023-05-01T01:07:59.783Z,1.00
2023-05-01T01:10:37.244Z,2.00
2023-05-01T01:13:15.616Z,1.00
2023-05-01T01:16:03.493Z,1.00
2023-05-01T01:18:44.250Z,1.00
2023-05-01T01:21:20.763Z,1.00
2023-05-01T01:24:26.063Z,1.33
2023-05-01T01:27:28.720Z,1.33
2023-05-01T01:30:22.773Z,1.00
2023-05-01T01:33:16.726Z,1.00
2023-05-01T01:35:48.327Z,1.00
2023-05-01T01:38:17.377Z,1.00
2023-05-01T01:41:08.834Z,1.00
2023-05-01T01:43:39.583Z,0.67
2023-05-01T01:46:08.492Z,1.00
2023-05-01T01:48:38.735Z,0.00
2023-05-01T01:51:12.287Z,1.00
2023-05-01T01:53:41.327Z,0.67
2023-05-01T01:56:09.294Z,0.00
2023-05-01T01:58:37.269Z,1.00
2023-05-01T02:01:06.347Z,1.00
2023-05-01T02:03:34.887Z,1.00
2023-05-01T02:06:03.914Z,1.00
2023-05-01T02:08:32.314Z,0.00
2023-05-01T02:11:02.037Z,1.00
2023-05-01T02:13:31.326Z,0.00
2023-05-01T02:15:59.669Z,0.50
2023-05-01T02:18:27.958Z,0.00
2023-05-01T02:20:57.559Z,1.00
2023-05-01T02:23:27.360Z,1.00
2023-05-01T02:25:55.320Z,1.00
2023-05-01T02:28:24.721Z,1.00
2023-05-01T02:30:52.743Z,1.00
2023-05-01T02:33:21.586Z,0.75
2023-05-01T02:35:49.623Z,0.33
2023-05-01T02:38:18.058Z,0.33
2023-05-01T02:40:52.502Z,1.00
2023-05-01T02:43:21.249Z,0.00
2023-05-01T02:45:49.599Z,1.00
2023-05-01T02:48:20.390Z,1.00
2023-05-01T02:50:49.457Z,1.00
2023-05-01T02:53:18.853Z,1.00
2023-05-01T02:55:52.826Z,0.00
2023-05-01T02:58:20.832Z,1.00
2023-05-01T03:00:50.009Z,0.00
2023-05-01T03:03:18.953Z,0.00
2023-05-01T03:05:47.846Z,0.00
2023-05-01T03:08:16.067Z,1.00
2023-05-01T03:10:44.481Z,1.00
2023-05-01T03:13:12.554Z,0.00
2023-05-01T03:15:41.387Z,0.00
2023-05-01T03:18:09.751Z,0.33
2023-05-01T03:20:38.806Z,0.67
2023-05-01T03:23:07.851Z,1.00
2023-05-01T03:25:37.087Z,1.00
2023-05-01T03:28:05.070Z,0.00
2023-05-01T03:30:34.223Z,1.00
2023-05-01T03:33:03.194Z,1.00
2023-05-01T03:35:31.915Z,0.00
2023-05-01T03:38:00.477Z,0.00
2023-05-01T03:41:05.345Z,1.00
2023-05-01T03:43:56.491Z,1.00
2023-05-01T03:46:36.850Z,0.00
2023-05-01T03:49:05.553Z,1.00
2023-05-01T03:51:36.868Z,0.00
2023-05-01T03:54:05.200Z,1.00
2023-05-01T03:56:39.799Z,1.00
2023-05-01T03:59:08.369Z,1.00
2023-05-01T04:01:36.743Z,1.00
2023-05-01T04:04:04.924Z,0.00
2023-05-01T04:06:33.620Z,0.00
2023-05-01T04:09:01.902Z,0.00
2023-05-01T04:11:29.804Z,0.00
2023-05-01T04:13:57.716Z,0.00
2023-05-01T04:16:25.667Z,0.00
2023-05-01T04:18:54.593Z,0.33
2023-05-01T04:21:23.240Z,0.00
2023-05-01T04:23:52.824Z,0.00
2023-05-01T04:26:22.196Z,0.00
2023-05-01T04:28:51.063Z,0.00
2023-05-01T04:31:22.503Z,1.00
2023-05-01T04:33:50.730Z,0.00
2023-05-01T04:36:18.798Z,1.00
2023-05-01T04:38:46.812Z,0.00
2023-05-01T04:41:15.062Z,0.00
2023-05-01T04:43:43.453Z,0.00
2023-05-01T04:46:11.946Z,1.00
2023-05-01T04:48:40.114Z,0.00
2023-05-01T04:51:08.601Z,0.00
2023-05-01T04:53:36.773Z,0.00
2023-05-01T04:56:06.318Z,1.00
2023-05-01T04:58:34.532Z,0.00
2023-05-01T05:01:06.560Z,0.00
2023-05-01T05:03:35.643Z,1.00
2023-05-01T05:06:04.112Z,0.00
2023-05-01T05:08:32.204Z,0.00
2023-05-01T05:11:10.083Z,1.00
2023-05-01T05:14:01.157Z,0.00
2023-05-01T05:16:30.276Z,0.00
2023-05-01T05:18:58.550Z,0.75
2023-05-01T05:21:28.057Z,1.00
2023-05-01T05:23:58.100Z,0.00
2023-05-01T05:26:27.592Z,0.00
2023-05-01T05:28:57.540Z,1.00
2023-05-01T05:31:25.951Z,1.00
2023-05-01T05:33:53.970Z,1.00
2023-05-01T05:36:22.510Z,1.00
2023-05-01T05:38:50.604Z,0.50
2023-05-01T05:41:20.317Z,0.00
2023-05-01T05:43:48.903Z,1.00
2023-05-01T05:46:17.110Z,0.00
2023-05-01T05:48:45.886Z,0.00
2023-05-01T05:51:13.966Z,1.00
2023-05-01T05:53:41.911Z,0.33
2023-05-01T05:56:09.911Z,0.00
2023-05-01T05:58:38.183Z,0.00
2023-05-01T06:01:07.230Z,1.00
2023-05-01T06:03:36.303Z,0.00
2023-05-01T06:06:04.724Z,0.00
2023-05-01T06:08:32.887Z,0.00
2023-05-01T06:11:00.850Z,0.33
2023-05-01T06:13:28.937Z,1.00
2023-05-01T06:15:57.431Z,0.00
2023-05-01T06:18:25.752Z,0.00
2023-05-01T06:20:54.542Z,0.25
2023-05-01T06:23:22.615Z,1.00
2023-05-01T06:26:10.138Z,0.33
2023-05-01T06:28:38.286Z,0.00
2023-05-01T06:31:06.526Z,0.00
2023-05-01T06:33:36.778Z,1.00
2023-05-01T06:36:14.682Z,0.67
2023-05-01T06:38:48.662Z,0.00
2023-05-01T06:41:16.976Z,1.00
2023-05-01T06:43:46.434Z,1.00
2023-05-01T06:46:14.476Z,0.00
2023-05-01T06:48:42.381Z,1.00
2023-05-01T06:51:10.362Z,0.00
2023-05-01T06:53:38.559Z,1.00
2023-05-01T06:56:07.029Z,0.00
2023-05-01T06:58:35.359Z,1.00
2023-05-01T07:01:04.000Z,0.00
2023-05-01T07:03:33.087Z,0.00
2023-05-01T07:06:01.356Z,0.00
2023-05-01T07:08:29.718Z,0.00
2023-05-01T07:10:58.209Z,0.00
2023-05-01T07:13:27.440Z,0.00
2023-05-01T07:15:55.568Z,0.00
2023-05-01T07:18:24.145Z,0.75
2023-05-01T07:20:53.111Z,1.00
2023-05-01T07:23:23.722Z,1.00
2023-05-01T07:25:52.625Z,0.00
2023-05-01T07:28:21.987Z,0.00
2023-05-01T07:30:50.120Z,1.00
2023-05-01T07:33:18.755Z,0.00
2023-05-01T07:35:47.121Z,0.00
2023-05-01T07:38:17.586Z,0.00
2023-05-01T07:40:45.676Z,0.00
2023-05-01T07:43:13.727Z,0.00
2023-05-01T07:45:42.995Z,0.00
2023-05-01T07:48:11.310Z,0.00
2023-05-01T07:50:39.465Z,0.00
2023-05-01T07:53:07.385Z,0.00
2023-05-01T07:55:35.287Z,0.00
2023-05-01T07:58:03.453Z,0.00
2023-05-01T08:00:31.618Z,0.00
2023-05-01T08:02:59.705Z,0.00
2023-05-01T08:05:29.310Z,0.00
2023-05-01T08:07:57.225Z,0.00
2023-05-01T08:10:26.026Z,0.00
2023-05-01T08:12:54.034Z,0.00
2023-05-01T08:15:22.076Z,0.00
2023-05-01T08:17:51.460Z,0.00
2023-05-01T08:20:19.796Z,0.00
2023-05-01T08:22:47.875Z,0.00
2023-05-01T08:25:15.872Z,0.00
2023-05-01T08:27:43.862Z,0.00
2023-05-01T08:30:11.930Z,0.00
2023-05-01T08:32:40.014Z,0.00
2023-05-01T08:35:08.181Z,0.00
2023-05-01T08:37:36.409Z,0.00
2023-05-01T08:40:08.651Z,0.00
2023-05-01T08:42:40.144Z,1.00
2023-05-01T08:45:09.577Z,0.00
2023-05-01T08:47:40.347Z,0.00
2023-05-01T08:50:12.081Z,0.00
2023-05-01T08:52:43.769Z,0.67
2023-05-01T08:55:15.493Z,0.00
2023-05-01T08:57:46.750Z,1.00
2023-05-01T09:00:20.068Z,0.00
2023-05-01T09:02:49.771Z,0.00
2023-05-01T09:05:19.611Z,1.00
2023-05-01T09:07:47.847Z,0.00
2023-05-01T09:10:17.996Z,0.00
2023-05-01T09:12:48.962Z,0.00
2023-05-01T09:15:17.227Z,1.00
2023-05-01T09:17:45.292Z,0.00
2023-05-01T09:20:13.947Z,0.00
2023-05-01T09:22:42.130Z,0.00
2023-05-01T09:25:11.069Z,1.00
2023-05-01T09:27:39.071Z,0.00
2023-05-01T09:30:09.027Z,0.00
2023-05-01T09:32:36.968Z,0.00
2023-05-01T09:35:14.803Z,0.00
2023-05-01T09:37:42.678Z,0.00
2023-05-01T09:40:12.491Z,0.00
2023-05-01T09:42:41.015Z,1.00
2023-05-01T09:45:14.157Z,0.00
2023-05-01T09:47:43.786Z,0.00
2023-05-01T09:50:13.903Z,0.00
2023-05-01T09:52:41.945Z,1.00
2023-05-01T09:55:14.392Z,0.00
2023-05-01T09:57:43.757Z,0.00
2023-05-01T10:00:14.031Z,0.67
2023-05-01T10:02:45.299Z,0.00
2023-05-01T10:05:14.082Z,0.50
2023-05-01T10:08:02.567Z,1.00
2023-05-01T10:10:30.679Z,1.00
2023-05-01T10:13:15.954Z,1.00
2023-05-01T10:15:47.007Z,0.00
2023-05-01T10:18:15.443Z,1.00
2023-05-01T10:20:43.806Z,0.33
2023-05-01T10:23:11.739Z,0.00
2023-05-01T10:25:40.082Z,1.00
2023-05-01T10:28:09.172Z,0.00
2023-05-01T10:30:38.301Z,0.00
2023-05-01T10:33:06.236Z,0.00
2023-05-01T10:35:39.361Z,1.00
2023-05-01T10:38:09.733Z,0.00
2023-05-01T10:40:44.210Z,0.00
2023-05-01T10:43:18.327Z,0.00
2023-05-01T10:45:47.221Z,0.00
2023-05-01T10:48:40.767Z,0.00
2023-05-01T10:51:10.634Z,0.00
2023-05-01T10:53:39.368Z,0.33
2023-05-01T10:56:25.791Z,0.00
2023-05-01T10:58:53.651Z,0.00
2023-05-01T11:01:30.819Z,0.00
2023-05-01T11:04:00.112Z,0.00
2023-05-01T11:06:28.506Z,0.00
2023-05-01T11:08:57.518Z,0.67
2023-05-01T11:11:25.514Z,1.00
2023-05-01T11:14:02.955Z,1.00
2023-05-01T11:16:40.374Z,0.67
2023-05-01T11:19:10.569Z,0.00
2023-05-01T11:21:39.614Z,0.00
2023-05-01T11:24:08.087Z,0.67
2023-05-01T11:26:38.311Z,0.00
2023-05-01T11:29:06.621Z,1.00
2023-05-01T11:31:34.964Z,0.00
2023-05-01T11:34:03.785Z,0.00
2023-05-01T11:36:48.653Z,0.00
2023-05-01T11:39:17.459Z,0.00
2023-05-01T11:41:46.128Z,0.00
2023-05-01T11:44:16.625Z,0.33
2023-05-01T11:46:45.233Z,0.00
2023-05-01T11:49:13.262Z,0.00
2023-05-01T11:51:41.452Z,0.00
2023-05-01T11:54:11.290Z,0.00
2023-05-01T11:56:42.921Z,0.00
2023-05-01T11:59:17.527Z,0.00
2023-05-01T12:01:46.484Z,0.00
2023-05-01T12:04:29.650Z,0.00
2023-05-01T12:06:59.730Z,0.00
2023-05-01T12:09:27.620Z,0.00
2023-05-01T12:11:55.781Z,0.00
2023-05-01T12:14:24.618Z,0.67
2023-05-01T12:16:53.473Z,0.00
2023-05-01T12:19:23.957Z,0.00
2023-05-01T12:22:08.419Z,0.00
2023-05-01T12:24:36.451Z,0.00
2023-05-01T12:27:04.516Z,0.00
2023-05-01T12:29:41.929Z,0.00
2023-05-01T12:32:09.985Z,0.00
2023-05-01T12:34:38.678Z,0.00
2023-05-01T12:37:06.838Z,0.67
2023-05-01T12:39:44.661Z,1.00
2023-05-01T12:42:14.274Z,0.00
2023-05-01T12:44:42.722Z,0.00
2023-05-01T12:47:10.739Z,0.00
2023-05-01T12:49:38.721Z,0.33
2023-05-01T12:52:07.850Z,0.00
2023-05-01T12:54:40.706Z,0.00
2023-05-01T12:57:15.561Z,1.00
2023-05-01T12:59:47.341Z,1.00
2023-05-01T13:02:17.326Z,0.00
2023-05-01T13:04:46.556Z,0.00
2023-05-01T13:07:18.562Z,0.00
2023-05-01T13:09:53.842Z,0.00
2023-05-01T13:12:21.974Z,0.50
2023-05-01T13:14:50.085Z,0.00
2023-05-01T13:17:31.542Z,1.00
2023-05-01T13:20:01.070Z,0.00
2023-05-01T13:22:33.163Z,0.00
2023-05-01T13:25:03.069Z,0.00
2023-05-01T13:27:31.412Z,0.00
2023-05-01T13:29:59.671Z,0.00
2023-05-01T13:32:28.212Z,0.00
2023-05-01T13:35:02.963Z,1.00
2023-05-01T13:37:30.887Z,0.50
2023-05-01T13:39:59.627Z,1.00
2023-05-01T13:42:28.697Z,0.00
2023-05-01T13:44:57.383Z,0.00
2023-05-01T13:47:28.642Z,0.00
2023-05-01T13:49:57.361Z,0.00
2023-05-01T13:52:25.424Z,0.00
2023-05-01T13:54:53.502Z,0.00
2023-05-01T13:57:21.457Z,0.00
2023-05-01T13:59:49.720Z,0.00
2023-05-01T14:02:21.937Z,0.50
2023-05-01T14:04:50.415Z,1.00
2023-05-01T14:07:19.809Z,0.00
2023-05-01T14:09:54.780Z,0.00
2023-05-01T14:12:25.034Z,0.00
2023-05-01T14:14:53.641Z,1.00
2023-05-01T14:17:35.340Z,1.00
2023-05-01T14:20:05.150Z,0.67
2023-05-01T14:22:43.441Z,0.00
2023-05-01T14:25:17.408Z,0.00
2023-05-01T14:27:45.548Z,0.00
2023-05-01T14:30:16.286Z,0.00
2023-05-01T14:32:44.858Z,1.00
2023-05-01T14:35:13.277Z,0.00
2023-05-01T14:37:41.374Z,0.00
2023-05-01T14:40:12.328Z,0.67
2023-05-01T14:42:43.137Z,0.00
2023-05-01T14:45:16.700Z,0.00
2023-05-01T14:47:46.634Z,0.00
2023-05-01T14:50:22.585Z,0.00
2023-05-01T14:52:57.486Z,0.00
2023-05-01T14:55:28.383Z,0.00
2023-05-01T14:57:56.613Z,0.00
2023-05-01T15:00:24.847Z,1.00
2023-05-01T15:02:52.937Z,0.00
2023-05-01T15:05:21.351Z,1.00
2023-05-01T15:07:49.388Z,1.00
2023-05-01T15:10:17.580Z,0.50
2023-05-01T15:12:45.717Z,0.67
2023-05-01T15:15:13.695Z,0.00
2023-05-01T15:17:42.250Z,0.50
2023-05-01T15:20:11.390Z,1.00
2023-05-01T15:22:40.928Z,1.00
2023-05-01T15:25:10.070Z,1.00
2023-05-01T15:27:38.528Z,2.00
2023-05-01T15:30:07.277Z,0.00
2023-05-01T15:32:35.310Z,1.00
2023-05-01T15:35:03.550Z,2.00
2023-05-01T15:37:31.858Z,2.00
2023-05-01T15:39:59.913Z,1.00
2023-05-01T15:42:28.299Z,1.00
2023-05-01T15:44:56.485Z,1.00
2023-05-01T15:47:24.709Z,0.33
2023-05-01T15:49:53.795Z,1.33
2023-05-01T15:52:21.795Z,1.00
2023-05-01T15:54:49.873Z,2.00
2023-05-01T15:57:17.857Z,1.00
2023-05-01T15:59:46.109Z,1.00
2023-05-01T16:02:14.132Z,1.00
2023-05-01T16:04:46.508Z,1.00
2023-05-01T16:07:14.497Z,1.00
2023-05-01T16:09:42.440Z,1.00
2023-05-01T16:12:10.418Z,1.67
2023-05-01T16:14:42.131Z,2.00
2023-05-01T16:17:10.299Z,2.00
2023-05-01T16:19:38.383Z,1.50
2023-05-01T16:22:07.368Z,3.00
2023-05-01T16:24:38.863Z,3.00
2023-05-01T16:27:07.447Z,2.00
2023-05-01T16:29:36.121Z,2.00
2023-05-01T16:32:04.677Z,2.00
2023-05-01T16:34:33.029Z,1.00
2023-05-01T16:37:01.285Z,2.00
2023-05-01T16:39:30.425Z,2.00
2023-05-01T16:41:58.470Z,2.00
2023-05-01T16:44:26.983Z,1.00
2023-05-01T16:46:56.059Z,1.00
2023-05-01T16:49:24.834Z,2.00
2023-05-01T16:51:56.715Z,2.00
2023-05-01T16:54:26.938Z,2.67
2023-05-01T16:56:54.839Z,3.00
2023-05-01T16:59:23.300Z,2.00
2023-05-01T17:01:52.625Z,2.00
2023-05-01T17:04:20.767Z,2.00
2023-05-01T17:06:49.028Z,1.67
2023-05-01T17:09:16.918Z,2.00
2023-05-01T17:11:56.815Z,1.67
2023-05-01T17:14:24.931Z,1.00
2023-05-01T17:16:53.294Z,2.00
2023-05-01T17:19:21.444Z,0.33
2023-05-01T17:21:49.318Z,2.00
2023-05-01T17:24:17.676Z,2.00
2023-05-01T17:26:46.713Z,1.00
2023-05-01T17:29:15.287Z,2.00
2023-05-01T17:31:43.855Z,1.00
2023-05-01T17:34:11.885Z,2.00
2023-05-01T17:36:40.153Z,1.67
2023-05-01T17:39:08.187Z,1.00
2023-05-01T17:41:36.418Z,2.00
2023-05-01T17:44:04.423Z,2.00
2023-05-01T17:46:33.320Z,1.67
2023-05-01T17:49:01.795Z,1.00
2023-05-01T17:51:29.730Z,2.00
2023-05-01T17:53:57.942Z,2.00
2023-05-01T17:56:26.138Z,2.00
2023-05-01T17:58:54.860Z,1.00
2023-05-01T18:01:22.896Z,2.00
2023-05-01T18:03:51.378Z,2.00
2023-05-01T18:06:19.592Z,2.00
2023-05-01T18:08:49.290Z,2.00
2023-05-01T18:11:18.324Z,2.00
2023-05-01T18:13:48.294Z,2.00
2023-05-01T18:16:16.335Z,2.00
2023-05-01T18:18:45.872Z,2.00
2023-05-01T18:21:14.657Z,2.00
2023-05-01T18:23:42.749Z,2.00
2023-05-01T18:26:10.710Z,2.00
2023-05-01T18:28:38.906Z,2.00
2023-05-01T18:31:08.101Z,1.00
2023-05-01T18:33:36.255Z,2.50
2023-05-01T18:36:04.631Z,1.67
2023-05-01T18:38:32.690Z,2.00
2023-05-01T18:41:00.757Z,2.00
2023-05-01T18:43:29.094Z,3.00
2023-05-01T18:45:57.898Z,3.67
2023-05-01T18:48:25.980Z,3.00
2023-05-01T18:51:07.054Z,2.67
2023-05-01T18:53:36.676Z,3.00
2023-05-01T18:56:04.996Z,3.00
2023-05-01T18:58:33.108Z,2.75
2023-05-01T19:01:00.998Z,4.00
2023-05-01T19:03:29.240Z,3.00
2023-05-01T19:05:57.117Z,3.00
2023-05-01T19:08:25.327Z,4.00
2023-05-01T19:10:53.507Z,2.00
2023-05-01T19:13:21.847Z,3.50
2023-05-01T19:15:49.783Z,2.00
2023-05-01T19:18:18.359Z,3.00
2023-05-01T19:20:46.319Z,3.00
2023-05-01T19:23:14.320Z,4.00
2023-05-01T19:25:42.196Z,3.33
2023-05-01T19:28:10.247Z,3.00
2023-05-01T19:30:38.347Z,3.00
2023-05-01T19:33:06.673Z,4.00
2023-05-01T19:35:35.571Z,3.00
2023-05-01T19:38:03.602Z,4.00
2023-05-01T19:40:32.021Z,3.00
2023-05-01T19:43:00.522Z,4.00
2023-05-01T19:45:28.434Z,3.00
2023-05-01T19:47:56.620Z,3.00
2023-05-01T19:50:24.754Z,4.00
2023-05-01T19:52:53.662Z,3.00
2023-05-01T19:55:21.539Z,4.00
2023-05-01T19:57:49.758Z,3.50
2023-05-01T20:00:17.876Z,4.00
2023-05-01T20:02:46.835Z,3.50
2023-05-01T20:05:14.876Z,4.00
2023-05-01T20:07:42.808Z,3.00
2023-05-01T20:10:10.988Z,2.00
2023-05-01T20:12:39.375Z,3.75
2023-05-01T20:15:08.711Z,3.25
2023-05-01T20:17:37.205Z,3.75
2023-05-01T20:20:05.673Z,3.00
2023-05-01T20:22:33.875Z,3.33
2023-05-01T20:25:02.290Z,3.67
2023-05-01T20:27:30.220Z,3.00
2023-05-01T20:29:58.432Z,2.25
2023-05-01T20:32:26.910Z,3.00
2023-05-01T20:34:56.123Z,4.00
2023-05-01T20:37:24.154Z,4.00
2023-05-01T20:39:52.091Z,4.00
2023-05-01T20:42:20.104Z,3.00
2023-05-01T20:44:48.119Z,3.00
2023-05-01T20:47:16.286Z,4.00
2023-05-01T20:49:44.417Z,4.00
2023-05-01T20:52:12.658Z,3.00
2023-05-01T20:54:40.619Z,3.00
2023-05-01T20:57:08.791Z,4.00
2023-05-01T20:59:36.915Z,3.67
2023-05-01T21:02:05.175Z,3.00
2023-05-01T21:04:33.636Z,2.00
2023-05-01T21:07:01.522Z,4.00
2023-05-01T21:09:29.893Z,4.00
2023-05-01T21:11:57.964Z,2.67
2023-05-01T21:14:27.866Z,4.50
2023-05-01T21:16:55.916Z,3.00
2023-05-01T21:19:23.905Z,4.50
2023-05-01T21:21:54.857Z,4.00
2023-05-01T21:24:24.244Z,4.00
2023-05-01T21:26:55.271Z,4.00
2023-05-01T21:29:23.175Z,3.67
2023-05-01T21:31:51.461Z,4.00
2023-05-01T21:34:19.523Z,5.00
2023-05-01T21:36:49.325Z,0.00
2023-05-01T21:39:17.896Z,3.00
2023-05-01T21:41:50.562Z,4.00
2023-05-01T21:44:18.574Z,4.50
2023-05-01T21:46:46.697Z,5.00
2023-05-01T21:49:16.982Z,4.25
2023-05-01T21:51:45.202Z,4.50
2023-05-01T21:54:13.139Z,5.00
2023-05-01T21:56:41.045Z,3.00
2023-05-01T21:59:08.925Z,5.00
2023-05-01T22:01:38.532Z,3.00
2023-05-01T22:04:07.252Z,5.00
2023-05-01T22:06:35.319Z,3.00
2023-05-01T22:09:03.475Z,3.00
2023-05-01T22:11:31.356Z,4.00
2023-05-01T22:13:59.593Z,5.00
2023-05-01T22:16:27.779Z,5.00
2023-05-01T22:18:55.789Z,5.00
2023-05-01T22:21:23.824Z,5.00
2023-05-01T22:23:52.237Z,4.00
2023-05-01T22:26:20.208Z,5.67
2023-05-01T22:28:49.905Z,4.00
2023-05-01T22:31:18.250Z,2.67
2023-05-01T22:33:46.669Z,5.00
2023-05-01T22:36:14.588Z,5.00
2023-05-01T22:38:42.561Z,3.75
2023-05-01T22:41:10.676Z,3.00
2023-05-01T22:43:39.520Z,4.00
2023-05-01T22:46:07.465Z,4.75
2023-05-01T22:48:36.402Z,5.00
2023-05-01T22:51:04.455Z,6.00
2023-05-01T22:53:32.532Z,3.25
2023-05-01T22:56:00.800Z,4.00
2023-05-01T22:58:28.809Z,5.00
2023-05-01T23:00:56.776Z,4.00
2023-05-01T23:03:24.717Z,3.00
2023-05-01T23:05:52.797Z,4.00
2023-05-01T23:08:21.177Z,5.00
2023-05-01T23:10:49.200Z,4.00
2023-05-01T23:13:19.111Z,4.00
2023-05-01T23:15:47.324Z,3.75
2023-05-01T23:18:30.119Z,5.00
2023-05-01T23:20:58.039Z,4.67
2023-05-01T23:23:30.595Z,4.75
2023-05-01T23:25:58.739Z,5.00
2023-05-01T23:28:27.470Z,4.00
2023-05-01T23:30:59.746Z,4.25
2023-05-01T23:33:37.029Z,5.00
2023-05-01T23:36:10.351Z,4.00
2023-05-01T23:38:39.650Z,4.00
2023-05-01T23:41:07.943Z,4.00
2023-05-01T23:43:36.201Z,4.67
2023-05-01T23:46:04.592Z,5.00
2023-05-01T23:48:33.162Z,4.75
2023-05-01T23:51:01.463Z,3.00
2023-05-01T23:53:30.058Z,4.33
2023-05-01T23:55:58.068Z,5.50
2023-05-01T23:58:25.947Z,5.00
